createdAt,value
2024-04-13T00:02:04.414Z,0.30
2024-04-13T00:04:31.657Z,0.20
2024-04-13T00:06:58.571Z,0.23
2024-04-13T00:09:25.500Z,0.20
2024-04-13T00:11:52.422Z,0.20
2024-04-13T00:14:19.876Z,0.30
2024-04-13T00:16:46.865Z,0.10
2024-04-13T00:19:13.833Z,0.30
2024-04-13T00:21:42.011Z,0.20
2024-04-13T00:24:11.814Z,0.20
2024-04-13T00:26:38.788Z,0.20
2024-04-13T00:29:08.344Z,0.20
2024-04-13T00:31:35.300Z,0.30
2024-04-13T00:34:05.928Z,0.20
2024-04-13T00:36:37.178Z,0.20
2024-04-13T00:39:07.759Z,0.20
2024-04-13T00:41:34.739Z,0.20
2024-04-13T00:44:01.901Z,0.30
2024-04-13T00:46:33.434Z,0.20
2024-04-13T00:49:02.619Z,0.20
2024-04-13T00:51:33.010Z,0.20
2024-04-13T00:54:01.079Z,0.20
2024-04-13T00:56:28.113Z,0.30
2024-04-13T00:58:55.418Z,0.30
2024-04-13T01:01:22.667Z,0.20
2024-04-13T01:03:50.399Z,0.20
2024-04-13T01:06:18.136Z,0.22
2024-04-13T01:08:45.072Z,0.20
2024-04-13T01:11:13.763Z,0.30
2024-04-13T01:13:42.358Z,0.20
2024-04-13T01:16:09.278Z,0.20
2024-04-13T01:18:36.222Z,0.20
2024-04-13T01:21:04.036Z,0.20
2024-04-13T01:23:32.336Z,0.15
2024-04-13T01:26:00.836Z,0.30
2024-04-13T01:28:32.192Z,0.20
2024-04-13T01:30:59.659Z,0.20
2024-04-13T01:33:26.626Z,0.20
2024-04-13T01:35:58.646Z,0.20
2024-04-13T01:38:25.515Z,0.20
2024-04-13T01:40:52.500Z,0.30
2024-04-13T01:43:19.379Z,0.20
2024-04-13T01:45:46.269Z,0.20
2024-04-13T01:48:13.271Z,0.30
2024-04-13T01:50:41.202Z,0.20
2024-04-13T01:53:08.198Z,0.20
2024-04-13T01:55:35.080Z,0.30
2024-04-13T01:58:01.946Z,0.20
2024-04-13T02:00:28.900Z,0.20
2024-04-13T02:02:55.876Z,0.30
2024-04-13T02:05:23.037Z,0.20
2024-04-13T02:07:49.894Z,0.20
2024-04-13T02:10:16.771Z,0.30
2024-04-13T02:12:43.851Z,0.20
2024-04-13T02:15:10.949Z,0.20
2024-04-13T02:17:37.880Z,0.20
2024-04-13T02:20:05.973Z,0.20
2024-04-13T02:22:36.619Z,0.20
2024-04-13T02:25:04.272Z,0.30
2024-04-13T02:27:32.883Z,0.20
2024-04-13T02:29:59.808Z,0.20
2024-04-13T02:32:26.737Z,0.30
2024-04-13T02:34:53.639Z,0.20
2024-04-13T02:37:20.541Z,0.20
2024-04-13T02:39:48.055Z,0.27
2024-04-13T02:42:15.074Z,0.23
2024-04-13T02:44:41.980Z,0.20
2024-04-13T02:47:09.130Z,0.20
2024-04-13T02:49:35.992Z,0.30
2024-04-13T02:52:04.328Z,0.20
2024-04-13T02:54:31.292Z,0.20
2024-04-13T02:56:58.144Z,0.30
2024-04-13T02:59:24.942Z,0.20
2024-04-13T03:01:51.756Z,0.13
2024-04-13T03:04:18.784Z,0.30
2024-04-13T03:06:46.112Z,0.20
2024-04-13T03:09:14.415Z,0.15
2024-04-13T03:11:41.455Z,0.30
2024-04-13T03:14:08.612Z,0.20
2024-04-13T03:16:36.674Z,0.20
2024-04-13T03:19:03.528Z,0.30
2024-04-13T03:21:32.202Z,0.20
2024-04-13T03:23:59.450Z,0.20
2024-04-13T03:26:26.235Z,0.20
2024-04-13T03:28:53.082Z,0.30
2024-04-13T03:31:19.959Z,0.20
2024-04-13T03:33:46.806Z,0.20
2024-04-13T03:36:13.948Z,0.30
2024-04-13T03:38:40.878Z,0.20
2024-04-13T03:41:08.752Z,0.20
2024-04-13T03:43:37.977Z,0.20
2024-04-13T03:46:06.112Z,0.30
2024-04-13T03:48:33.206Z,0.20
2024-04-13T03:51:03.650Z,0.20
2024-04-13T03:53:31.179Z,0.30
2024-04-13T03:55:58.165Z,0.20
2024-04-13T03:58:25.148Z,0.20
2024-04-13T04:00:52.099Z,0.20
2024-04-13T04:03:19.151Z,0.30
2024-04-13T04:05:53.150Z,0.20
2024-04-13T04:08:20.269Z,0.10
2024-04-13T04:10:47.469Z,0.20
2024-04-13T04:13:14.335Z,0.20
2024-04-13T04:15:42.714Z,0.20
2024-04-13T04:18:09.973Z,0.20
2024-04-13T04:20:36.932Z,0.20
2024-04-13T04:23:05.398Z,0.30
2024-04-13T04:25:32.301Z,0.10
2024-04-13T04:27:59.268Z,0.30
2024-04-13T04:30:26.228Z,0.20
2024-04-13T04:32:54.309Z,0.20
2024-04-13T04:35:21.347Z,0.20
2024-04-13T04:37:48.292Z,0.30
2024-04-13T04:40:15.530Z,0.20
2024-04-13T04:42:42.546Z,0.10
2024-04-13T04:45:09.701Z,0.20
2024-04-13T04:47:36.929Z,0.30
2024-04-13T04:50:05.462Z,0.20
2024-04-13T04:52:32.499Z,0.20
2024-04-13T04:55:02.905Z,0.20
2024-04-13T04:57:30.478Z,0.30
2024-04-13T04:59:57.505Z,0.20
2024-04-13T05:02:25.812Z,0.20
2024-04-13T05:04:53.299Z,0.30
2024-04-13T05:07:21.246Z,0.20
2024-04-13T05:09:48.292Z,0.20
2024-04-13T05:12:15.245Z,0.20
2024-04-13T05:14:42.112Z,0.30
2024-04-13T05:17:09.028Z,0.20
2024-04-13T05:19:39.615Z,0.20
2024-04-13T05:22:07.038Z,0.30
2024-04-13T05:24:34.445Z,0.30
2024-04-13T05:27:07.845Z,0.20
2024-04-13T05:29:37.098Z,0.20
2024-04-13T05:32:08.525Z,0.30
2024-04-13T05:34:35.419Z,0.20
2024-04-13T05:37:02.288Z,0.10
2024-04-13T05:39:31.129Z,0.20
2024-04-13T05:41:58.288Z,0.30
2024-04-13T05:44:25.144Z,0.20
2024-04-13T05:46:52.278Z,0.20
2024-04-13T05:49:19.348Z,0.30
2024-04-13T05:51:47.493Z,0.20
2024-04-13T05:54:14.459Z,0.10
2024-04-13T05:56:41.771Z,0.30
2024-04-13T05:59:08.990Z,0.20
2024-04-13T06:01:36.133Z,0.20
2024-04-13T06:04:03.277Z,0.30
2024-04-13T06:06:30.287Z,0.20
2024-04-13T06:08:57.137Z,0.25
2024-04-13T06:11:24.042Z,0.20
2024-04-13T06:13:51.506Z,0.20
2024-04-13T06:16:18.353Z,0.20
2024-04-13T06:18:45.616Z,0.10
2024-04-13T06:21:12.593Z,0.20
2024-04-13T06:23:39.567Z,0.10
2024-04-13T06:26:06.585Z,0.20
2024-04-13T06:28:33.753Z,0.10
2024-04-13T06:31:00.995Z,0.20
2024-04-13T06:33:28.039Z,0.10
2024-04-13T06:35:56.194Z,0.20
2024-04-13T06:38:27.563Z,0.20
2024-04-13T06:40:55.668Z,0.10
2024-04-13T06:43:23.309Z,0.20
2024-04-13T06:45:51.952Z,0.10
2024-04-13T06:48:19.341Z,0.10
2024-04-13T06:50:46.389Z,0.10
2024-04-13T06:53:13.305Z,0.20
2024-04-13T06:55:44.710Z,0.10
2024-04-13T06:58:11.642Z,0.10
2024-04-13T07:00:38.600Z,0.10
2024-04-13T07:03:06.270Z,0.17
2024-04-13T07:05:33.159Z,0.20
2024-04-13T07:08:00.054Z,0.10
2024-04-13T07:10:26.891Z,0.10
2024-04-13T07:12:53.799Z,0.10
2024-04-13T07:15:20.693Z,0.10
2024-04-13T07:17:50.842Z,0.10
2024-04-13T07:20:18.248Z,0.10
2024-04-13T07:22:45.159Z,0.10
2024-04-13T07:25:12.062Z,0.10
2024-04-13T07:27:38.975Z,0.10
2024-04-13T07:30:07.028Z,0.10
2024-04-13T07:32:34.558Z,0.10
2024-04-13T07:35:01.452Z,0.10
2024-04-13T07:37:28.269Z,0.10
2024-04-13T07:39:56.337Z,0.10
2024-04-13T07:42:23.438Z,0.10
2024-04-13T07:44:50.432Z,0.10
2024-04-13T07:47:17.279Z,0.10
2024-04-13T07:49:44.253Z,0.10
2024-04-13T07:52:11.623Z,0.10
2024-04-13T07:54:40.280Z,0.10
2024-04-13T07:57:07.192Z,0.10
2024-04-13T07:59:34.045Z,0.10
2024-04-13T08:02:01.067Z,0.10
2024-04-13T08:04:28.097Z,0.10
2024-04-13T08:06:55.213Z,0.10
2024-04-13T08:09:22.131Z,0.10
2024-04-13T08:11:48.979Z,0.10
2024-04-13T08:14:16.717Z,0.00
2024-04-13T08:16:43.725Z,0.00
2024-04-13T08:19:10.573Z,0.00
2024-04-13T08:21:37.552Z,0.00
2024-04-13T08:24:04.890Z,0.10
2024-04-13T08:26:31.730Z,0.00
2024-04-13T08:28:58.579Z,0.00
2024-04-13T08:31:25.528Z,0.00
2024-04-13T08:33:52.565Z,0.00
2024-04-13T08:36:19.504Z,0.00
2024-04-13T08:38:46.325Z,0.08
2024-04-13T08:41:47.406Z,0.00
2024-04-13T08:44:16.027Z,0.00
2024-04-13T08:46:45.990Z,0.00
2024-04-13T08:49:16.670Z,0.00
2024-04-13T08:51:47.265Z,0.00
2024-04-13T08:54:15.599Z,0.00
2024-04-13T08:56:45.590Z,0.00
2024-04-13T08:59:12.830Z,0.00
2024-04-13T09:01:47.427Z,0.00
2024-04-13T09:04:14.489Z,0.00
2024-04-13T09:06:41.814Z,0.00
2024-04-13T09:09:12.335Z,0.00
2024-04-13T09:11:39.743Z,0.00
2024-04-13T09:14:07.353Z,0.00
2024-04-13T09:16:35.197Z,0.00
2024-04-13T09:19:04.439Z,0.00
2024-04-13T09:21:32.971Z,0.00
2024-04-13T09:23:59.891Z,0.00
2024-04-13T09:26:27.139Z,0.00
2024-04-13T09:28:54.022Z,0.00
2024-04-13T09:31:21.317Z,0.00
2024-04-13T09:33:52.791Z,0.00
2024-04-13T09:36:24.223Z,0.00
2024-04-13T09:38:51.710Z,0.00
2024-04-13T09:41:18.744Z,0.00
2024-04-13T09:43:48.888Z,0.00
2024-04-13T09:46:15.715Z,0.00
2024-04-13T09:48:42.724Z,0.00
2024-04-13T09:51:09.618Z,0.00
2024-04-13T09:53:36.947Z,0.00
2024-04-13T09:56:05.859Z,0.00
2024-04-13T09:58:33.609Z,0.00
2024-04-13T10:01:06.248Z,0.00
2024-04-13T10:03:35.259Z,0.00
2024-04-13T10:06:03.527Z,0.00
2024-04-13T10:08:32.169Z,0.00
2024-04-13T10:11:01.299Z,0.00
2024-04-13T10:13:34.990Z,0.00
2024-04-13T10:16:03.596Z,0.00
2024-04-13T10:18:30.675Z,0.00
2024-04-13T10:21:04.308Z,0.00
2024-04-13T10:23:42.064Z,0.00
2024-04-13T10:26:09.638Z,0.00
2024-04-13T10:28:36.431Z,0.00
2024-04-13T10:31:04.450Z,0.00
2024-04-13T10:33:32.977Z,0.00
2024-04-13T10:36:09.217Z,0.00
2024-04-13T10:38:37.975Z,0.00
2024-04-13T10:41:05.368Z,0.00
2024-04-13T10:43:33.330Z,0.00
2024-04-13T10:46:02.982Z,0.00
2024-04-13T10:48:31.636Z,0.00
2024-04-13T10:50:59.975Z,0.00
2024-04-13T10:53:29.330Z,0.00
2024-04-13T10:55:59.378Z,0.00
2024-04-13T10:58:31.723Z,0.00
2024-04-13T11:00:59.994Z,0.00
2024-04-13T11:03:28.775Z,0.00
2024-04-13T11:05:56.127Z,0.00
2024-04-13T11:08:24.959Z,0.00
2024-04-13T11:10:55.854Z,0.00
2024-04-13T11:13:22.881Z,0.00
2024-04-13T11:15:50.291Z,0.00
2024-04-13T11:18:18.651Z,0.00
2024-04-13T11:20:50.184Z,0.00
2024-04-13T11:23:17.328Z,0.00
2024-04-13T11:25:44.213Z,0.00
2024-04-13T11:28:11.464Z,0.00
2024-04-13T11:30:42.881Z,0.00
2024-04-13T11:33:10.665Z,0.00
2024-04-13T11:35:37.487Z,0.00
2024-04-13T11:38:05.718Z,0.00
2024-04-13T11:40:33.667Z,0.00
2024-04-13T11:43:04.893Z,0.00
2024-04-13T11:45:32.762Z,0.00
2024-04-13T11:48:00.324Z,0.00
2024-04-13T11:50:27.275Z,0.00
2024-04-13T11:52:54.547Z,0.00
2024-04-13T11:55:25.469Z,0.00
2024-04-13T11:57:52.377Z,0.00
2024-04-13T12:00:22.141Z,0.00
2024-04-13T12:02:49.114Z,0.00
2024-04-13T12:05:17.260Z,0.00
2024-04-13T12:07:44.835Z,0.00
2024-04-13T12:10:12.037Z,0.00
2024-04-13T12:12:38.949Z,0.00
2024-04-13T12:15:06.382Z,0.00
2024-04-13T12:17:33.339Z,0.00
2024-04-13T12:20:02.050Z,0.00
2024-04-13T12:22:29.713Z,0.00
2024-04-13T12:24:56.997Z,0.00
2024-04-13T12:27:23.998Z,0.00
2024-04-13T12:29:50.952Z,0.00
2024-04-13T12:32:17.820Z,0.00
2024-04-13T12:34:44.672Z,0.00
2024-04-13T12:37:12.111Z,0.00
2024-04-13T12:39:39.109Z,0.00
2024-04-13T12:42:06.193Z,0.00
2024-04-13T12:44:33.011Z,0.00
2024-04-13T12:47:00.609Z,0.00
2024-04-13T12:49:27.992Z,0.00
2024-04-13T12:51:55.206Z,0.00
2024-04-13T12:54:22.142Z,0.00
2024-04-13T12:56:49.222Z,0.00
2024-04-13T12:59:16.069Z,0.00
2024-04-13T13:01:43.011Z,0.00
2024-04-13T13:04:09.894Z,0.00
2024-04-13T13:06:36.890Z,0.00
2024-04-13T13:09:04.275Z,0.00
2024-04-13T13:11:31.079Z,0.00
2024-04-13T13:13:57.924Z,0.00
2024-04-13T13:16:24.779Z,0.00
2024-04-13T13:18:51.646Z,0.00
2024-04-13T13:21:18.771Z,0.00
2024-04-13T13:23:45.762Z,0.00
2024-04-13T13:26:12.906Z,0.00
2024-04-13T13:28:39.904Z,0.00
2024-04-13T13:31:06.753Z,0.00
2024-04-13T13:33:33.649Z,0.00
2024-04-13T13:36:01.002Z,0.00
2024-04-13T13:38:27.977Z,0.00
2024-04-13T13:40:54.991Z,0.00
2024-04-13T13:43:22.208Z,0.00
2024-04-13T13:45:49.264Z,0.00
2024-04-13T13:48:17.948Z,0.00
2024-04-13T13:50:46.045Z,0.00
2024-04-13T13:53:13.033Z,0.00
2024-04-13T13:55:39.833Z,0.00
2024-04-13T13:58:07.134Z,0.00
2024-04-13T14:00:39.730Z,0.00
2024-04-13T14:03:07.393Z,0.00
2024-04-13T14:05:34.484Z,0.00
2024-04-13T14:08:01.437Z,0.00
2024-04-13T14:10:29.688Z,0.00
2024-04-13T14:12:56.775Z,0.00
2024-04-13T14:15:23.780Z,0.00
2024-04-13T14:17:50.770Z,0.00
2024-04-13T14:20:17.772Z,0.00
2024-04-13T14:22:44.605Z,0.00
2024-04-13T14:25:11.450Z,0.00
2024-04-13T14:27:38.416Z,0.00
2024-04-13T14:30:05.899Z,0.00
2024-04-13T14:32:32.798Z,0.00
2024-04-13T14:34:59.712Z,0.00
2024-04-13T14:37:26.557Z,0.00
2024-04-13T14:39:53.588Z,0.00
2024-04-13T14:42:20.678Z,0.00
2024-04-13T14:44:47.546Z,0.00
2024-04-13T14:47:14.406Z,0.00
2024-04-13T14:49:41.375Z,0.00
2024-04-13T14:52:08.264Z,0.00
2024-04-13T14:54:35.262Z,0.00
2024-04-13T14:57:02.120Z,0.00
2024-04-13T14:59:29.229Z,0.00
2024-04-13T15:01:56.074Z,0.00
2024-04-13T15:04:23.094Z,0.00
2024-04-13T15:06:50.440Z,0.00
2024-04-13T15:09:17.723Z,0.00
2024-04-13T15:11:44.562Z,0.00
2024-04-13T15:14:11.461Z,0.00
2024-04-13T15:16:38.271Z,0.00
2024-04-13T15:19:05.665Z,0.00
2024-04-13T15:21:32.567Z,0.00
2024-04-13T15:23:59.421Z,0.00
2024-04-13T15:26:26.709Z,0.00
2024-04-13T15:28:58.176Z,0.00
2024-04-13T15:31:27.020Z,0.00
2024-04-13T15:33:54.095Z,0.00
2024-04-13T15:36:21.354Z,0.00
2024-04-13T15:41:16.259Z,0.00
2024-04-13T15:43:43.173Z,0.00
2024-04-13T15:46:10.087Z,0.00
2024-04-13T15:48:37.369Z,0.00
2024-04-13T15:51:05.188Z,0.00
2024-04-13T15:53:32.144Z,0.00
2024-04-13T15:55:59.711Z,0.00
2024-04-13T15:58:26.604Z,0.00
2024-04-13T16:00:53.543Z,0.00
2024-04-13T16:05:54.332Z,0.00
2024-04-13T16:08:22.122Z,0.00
2024-04-13T16:10:49.125Z,0.00
2024-04-13T16:13:16.968Z,0.00
2024-04-13T16:15:44.254Z,0.00
2024-04-13T16:18:11.124Z,0.00
2024-04-13T16:20:38.110Z,0.00
2024-04-13T16:23:05.089Z,0.00
2024-04-13T16:25:31.889Z,0.00
2024-04-13T16:28:01.534Z,0.00
2024-04-13T16:30:28.908Z,0.00
2024-04-13T16:32:55.840Z,0.00
2024-04-13T16:35:27.704Z,0.00
2024-04-13T16:37:54.554Z,0.00
2024-04-13T16:40:21.625Z,0.00
2024-04-13T16:42:48.633Z,0.00
2024-04-13T16:45:17.102Z,0.00
2024-04-13T16:47:44.074Z,0.00
2024-04-13T16:50:13.107Z,0.00
2024-04-13T16:52:40.094Z,0.00
2024-04-13T16:55:07.336Z,0.00
2024-04-13T16:57:34.318Z,0.00
2024-04-13T17:00:01.582Z,0.00
2024-04-13T17:02:29.885Z,0.00
2024-04-13T17:04:57.102Z,0.00
2024-04-13T17:07:23.904Z,0.00
2024-04-13T17:09:50.834Z,0.00
2024-04-13T17:12:17.777Z,0.00
2024-04-13T17:14:44.763Z,0.00
2024-04-13T17:17:11.749Z,0.00
2024-04-13T17:19:39.573Z,0.00
2024-04-13T17:22:06.408Z,0.00
2024-04-13T17:24:33.328Z,0.00
2024-04-13T17:27:00.578Z,0.00
2024-04-13T17:29:27.611Z,0.00
2024-04-13T17:31:55.197Z,0.00
2024-04-13T17:34:22.136Z,0.00
2024-04-13T17:36:49.093Z,0.00
2024-04-13T17:39:15.992Z,0.00
2024-04-13T17:41:42.988Z,0.00
2024-04-13T17:44:10.370Z,0.00
2024-04-13T17:46:37.797Z,0.00
2024-04-13T17:49:04.693Z,0.00
2024-04-13T17:51:31.869Z,0.00
2024-04-13T17:53:58.761Z,0.00
2024-04-13T17:56:25.675Z,0.00
2024-04-13T17:58:52.557Z,0.00
2024-04-13T18:01:19.555Z,0.00
2024-04-13T18:03:48.921Z,0.00
2024-04-13T18:06:17.304Z,0.00
2024-04-13T18:08:44.978Z,0.00
2024-04-13T18:11:12.073Z,0.00
2024-04-13T18:13:39.020Z,0.00
2024-04-13T18:16:06.474Z,0.00
2024-04-13T18:18:33.688Z,0.00
2024-04-13T18:21:00.778Z,0.00
2024-04-13T18:23:27.647Z,0.00
2024-04-13T18:25:54.470Z,0.00
2024-04-13T18:28:21.560Z,0.00
2024-04-13T18:30:48.614Z,0.00
2024-04-13T18:33:15.873Z,0.00
2024-04-13T18:35:42.753Z,0.00
2024-04-13T18:38:11.079Z,0.00
2024-04-13T18:40:37.979Z,0.00
2024-04-13T18:43:05.638Z,0.00
2024-04-13T18:45:32.724Z,0.03
2024-04-13T18:47:59.783Z,0.10
2024-04-13T18:50:26.763Z,0.00
2024-04-13T18:52:53.663Z,0.03
2024-04-13T18:55:24.435Z,0.00
2024-04-13T18:57:51.879Z,0.10
2024-04-13T19:00:19.072Z,0.10
2024-04-13T19:02:46.807Z,0.10
2024-04-13T19:05:13.950Z,0.10
2024-04-13T19:07:40.859Z,0.10
2024-04-13T19:10:08.371Z,0.10
2024-04-13T19:12:35.237Z,0.10
2024-04-13T19:15:03.220Z,0.10
2024-04-13T19:17:30.713Z,0.00
2024-04-13T19:19:57.636Z,0.10
2024-04-13T19:22:26.252Z,0.10
2024-04-13T19:24:53.525Z,0.10
2024-04-13T19:27:20.436Z,0.00
2024-04-13T19:29:47.360Z,0.10
2024-04-13T19:32:14.305Z,0.10
2024-04-13T19:34:41.215Z,0.10
2024-04-13T19:37:08.068Z,0.07
2024-04-13T19:39:34.955Z,0.10
2024-04-13T19:42:02.942Z,0.10
2024-04-13T19:44:29.898Z,0.10
2024-04-13T19:46:57.072Z,0.10
2024-04-13T19:49:24.180Z,0.10
2024-04-13T19:51:51.398Z,0.10
2024-04-13T19:54:18.489Z,0.00
2024-04-13T19:56:45.615Z,0.10
2024-04-13T19:59:12.663Z,0.10
2024-04-13T20:01:41.613Z,0.10
2024-04-13T20:04:08.607Z,0.10
2024-04-13T20:06:35.682Z,0.10
2024-04-13T20:09:03.242Z,0.10
2024-04-13T20:11:30.242Z,0.10
2024-04-13T20:13:57.233Z,0.10
2024-04-13T20:16:43.056Z,0.10
2024-04-13T20:19:11.500Z,0.10
2024-04-13T20:21:38.558Z,0.10
2024-04-13T20:24:05.723Z,0.10
2024-04-13T20:26:32.751Z,0.10
2024-04-13T20:28:59.773Z,0.10
2024-04-13T20:31:26.785Z,0.10
2024-04-13T20:33:54.086Z,0.10
2024-04-13T20:36:21.210Z,0.10
2024-04-13T20:38:48.104Z,0.10
2024-04-13T20:41:15.034Z,0.10
2024-04-13T20:43:41.923Z,0.10
2024-04-13T20:46:08.836Z,0.10
2024-04-13T20:48:35.922Z,0.10
2024-04-13T20:51:02.866Z,0.10
2024-04-13T20:53:29.772Z,0.10
2024-04-13T20:55:56.783Z,0.20
2024-04-13T20:58:24.443Z,0.10
2024-04-13T21:00:58.140Z,0.10
2024-04-13T21:03:25.193Z,0.10
2024-04-13T21:05:52.410Z,0.10
2024-04-13T21:08:19.491Z,0.10
2024-04-13T21:10:47.178Z,0.10
2024-04-13T21:13:14.161Z,0.10
2024-04-13T21:15:41.227Z,0.10
2024-04-13T21:18:08.575Z,0.10
2024-04-13T21:20:36.037Z,0.10
2024-04-13T21:23:02.992Z,0.10
2024-04-13T21:25:30.071Z,0.10
2024-04-13T21:27:58.667Z,0.10
2024-04-13T21:30:25.793Z,0.10
2024-04-13T21:32:52.989Z,0.10
2024-04-13T21:35:20.207Z,0.10
2024-04-13T21:37:49.830Z,0.10
2024-04-13T21:40:16.889Z,0.20
2024-04-13T21:42:43.931Z,0.20
2024-04-13T21:45:10.894Z,0.20
2024-04-13T21:47:37.859Z,0.20
2024-04-13T21:50:05.152Z,0.20
2024-04-13T21:52:32.119Z,0.17
2024-04-13T21:54:59.093Z,0.10
2024-04-13T21:57:26.136Z,0.10
2024-04-13T21:59:53.166Z,0.10
2024-04-13T22:02:20.065Z,0.10
2024-04-13T22:04:47.003Z,0.10
2024-04-13T22:07:13.987Z,0.17
2024-04-13T22:09:41.068Z,0.20
2024-04-13T22:12:08.319Z,0.20
2024-04-13T22:14:36.417Z,0.10
2024-04-13T22:17:04.242Z,0.10
2024-04-13T22:19:33.285Z,0.10
2024-04-13T22:22:00.737Z,0.10
2024-04-13T22:24:27.931Z,0.20
2024-04-13T22:26:54.941Z,0.20
2024-04-13T22:29:21.896Z,0.10
2024-04-13T22:31:48.962Z,0.10
2024-04-13T22:34:16.100Z,0.10
2024-04-13T22:36:43.012Z,0.20
2024-04-13T22:39:12.666Z,0.20
2024-04-13T22:41:40.826Z,0.15
2024-04-13T22:44:07.743Z,0.10
2024-04-13T22:46:34.606Z,0.10
2024-04-13T22:49:06.077Z,0.20
2024-04-13T22:51:34.023Z,0.20
2024-04-13T22:54:01.119Z,0.20
2024-04-13T22:56:28.160Z,0.10
2024-04-13T22:58:55.436Z,0.10
2024-04-13T23:01:22.502Z,0.17
2024-04-13T23:03:49.796Z,0.20
2024-04-13T23:06:16.866Z,0.15
2024-04-13T23:08:44.260Z,0.10
2024-04-13T23:11:11.250Z,0.10
2024-04-13T23:13:38.110Z,0.20
2024-04-13T23:16:05.385Z,0.20
2024-04-13T23:18:32.400Z,0.10
2024-04-13T23:20:59.699Z,0.10
2024-04-13T23:23:26.690Z,0.20
2024-04-13T23:25:53.637Z,0.20
2024-04-13T23:28:20.443Z,0.10
2024-04-13T23:30:47.353Z,0.10
2024-04-13T23:33:14.327Z,0.10
2024-04-13T23:35:41.163Z,0.20
2024-04-13T23:38:07.994Z,0.22
2024-04-13T23:40:37.279Z,0.15
2024-04-13T23:43:04.290Z,0.10
2024-04-13T23:45:31.180Z,0.10
2024-04-13T23:47:58.033Z,0.17
2024-04-13T23:50:25.149Z,0.20
2024-04-13T23:52:52.027Z,0.13
2024-04-13T23:55:19.022Z,0.10
2024-04-13T23:57:46.164Z,0.13
